Terminal Aerodrome Forecast
Issued by NWS

Home | Current Version | Previous Version | Text Only | Print | Product List | Glossary On
Versions: 1 2 3 4 5 6 7 8 9 10 11 12 13 14 15
000
FTUS43 KMPX 191313 AAA
TAFRWF
TAF AMD
KRWF 191313Z 1913/2012 01013G21KT P6SM VCSH SCT018 OVC025
     FM191600 02015G24KT 2SM -SN OVC018
     FM192200 02013G20KT P6SM VCSH OVC015
     FM200400 03010KT 3SM -SN OVC015
     FM200700 02009KT 2SM -SN OVC015
     FM201000 35009KT 1SM -SN OVC015=

USA.gov is the U.S. government's official web portal to all federal, state and local government web resources and services.